Time;durP1;ratioP1;P1;durP2;ratioP2;P2;SDS_P1;SDS_P2;PMS_P1;PMS_P2;Temp;Humidity;BMP_temperature;BMP_pressure;BME280_temperature;BME280_humidity;BME280_pressure;Samples;Min_cycle;Max_cycle;Signal;HPM_P1;HPM_P2
2022/05/13 00:00:28;0.00;0.00;0.62;0.00;0.00;0.62;3.27;2.93;;;28.30;22.70;;;;;;2248239;61;20492;-58
2022/05/13 00:03:13;0.00;0.00;0.62;0.00;0.00;0.62;3.97;2.80;;;28.30;22.70;;;;;;2248477;61;20367;-57
2022/05/13 00:05:58;0.00;0.00;0.62;0.00;0.00;0.62;2.70;2.30;;;28.20;22.80;;;;;;2248360;61;20399;-54
2022/05/13 00:08:44;0.00;0.00;0.62;0.00;0.00;0.62;4.20;2.70;;;28.20;23.30;;;;;;2248555;61;20368;-59
2022/05/13 00:11:28;0.00;0.00;0.62;0.00;0.00;0.62;4.70;3.27;;;28.20;22.80;;;;;;2247782;61;20410;-58
2022/05/13 00:14:13;0.00;0.00;0.62;0.00;0.00;0.62;4.60;2.67;;;28.10;22.60;;;;;;2248331;61;20400;-59
2022/05/13 00:16:57;0.00;0.00;0.62;0.00;0.00;0.62;3.20;2.67;;;28.10;22.70;;;;;;2248632;61;20508;-50
2022/05/13 00:19:42;0.00;0.00;0.62;0.00;0.00;0.62;3.60;2.70;;;28.10;22.70;;;;;;2247039;61;20376;-59
2022/05/13 00:22:28;0.00;0.00;0.62;0.00;0.00;0.62;4.70;2.73;;;28.10;22.70;;;;;;2244168;61;20456;-59
2022/05/13 00:25:20;0.00;0.00;0.62;0.00;0.00;0.62;4.10;2.83;;;28.00;22.50;;;;;;2244115;61;20400;-56
2022/05/13 00:28:07;0.00;0.00;0.62;0.00;0.00;0.62;3.50;2.60;;;28.00;22.40;;;;;;2244069;61;20375;-59
2022/05/13 00:30:52;0.00;0.00;0.62;0.00;0.00;0.62;3.67;2.50;;;27.90;22.40;;;;;;2243992;61;20392;-59
2022/05/13 00:33:38;0.00;0.00;0.62;0.00;0.00;0.62;3.80;2.90;;;27.90;22.40;;;;;;2244329;61;20464;-54
2022/05/13 00:36:23;0.00;0.00;0.62;0.00;0.00;0.62;3.27;2.43;;;27.80;22.40;;;;;;2243886;61;20377;-60
2022/05/13 00:39:08;0.00;0.00;0.62;0.00;0.00;0.62;3.23;2.73;;;27.80;22.40;;;;;;2244558;61;20372;-60
2022/05/13 00:41:54;0.00;0.00;0.62;0.00;0.00;0.62;4.20;2.57;;;27.80;22.30;;;;;;2243806;61;20415;-59
2022/05/13 00:44:38;0.00;0.00;0.62;0.00;0.00;0.62;2.93;2.63;;;27.70;22.20;;;;;;2244218;61;20393;-59
2022/05/13 00:47:23;0.00;0.00;0.62;0.00;0.00;0.62;2.60;2.40;;;27.70;22.40;;;;;;2244558;61;20412;-55
2022/05/13 00:50:11;0.00;0.00;0.62;0.00;0.00;0.62;4.13;2.70;;;27.70;22.40;;;;;;2244739;61;20400;-58
2022/05/13 00:52:55;0.00;0.00;0.62;0.00;0.00;0.62;2.70;2.30;;;27.70;22.40;;;;;;2244187;61;20846;-58
2022/05/13 00:55:44;0.00;0.00;0.62;0.00;0.00;0.62;4.80;2.50;;;27.60;22.20;;;;;;2244507;61;20481;-57
2022/05/13 00:58:33;0.00;0.00;0.62;0.00;0.00;0.62;3.63;3.23;;;27.50;22.10;;;;;;2244118;61;20368;-60
2022/05/13 01:01:17;0.00;0.00;0.62;0.00;0.00;0.62;4.33;3.10;;;27.40;22.00;;;;;;2244010;61;20372;-59
2022/05/13 01:04:07;0.00;0.00;0.62;0.00;0.00;0.62;6.43;2.87;;;27.40;21.90;;;;;;2244173;61;20444;-57
2022/05/13 01:06:56;0.00;0.00;0.62;0.00;0.00;0.62;2.80;2.60;;;27.30;21.90;;;;;;2244181;61;20897;-57
2022/05/13 01:09:46;0.00;0.00;0.62;0.00;0.00;0.62;2.57;2.37;;;27.20;21.90;;;;;;2244410;61;20415;-59
2022/05/13 01:12:35;0.00;0.00;0.62;0.00;0.00;0.62;5.00;3.10;;;27.20;21.90;;;;;;2243809;61;20932;-59
2022/05/13 01:15:26;0.00;0.00;0.62;0.00;0.00;0.62;5.90;2.80;;;27.10;21.70;;;;;;2244430;61;20377;-59
2022/05/13 01:18:11;0.00;0.00;0.62;0.00;0.00;0.62;3.77;2.90;;;27.00;21.70;;;;;;2244136;61;20381;-57
2022/05/13 01:20:56;0.00;0.00;0.62;0.00;0.00;0.62;2.90;2.30;;;26.90;21.80;;;;;;2243522;61;20456;-57
2022/05/13 01:23:45;0.00;0.00;0.62;0.00;0.00;0.62;3.80;2.33;;;26.80;21.90;;;;;;2244295;61;20393;-58
2022/05/13 01:26:30;0.00;0.00;0.62;0.00;0.00;0.62;2.23;2.00;;;26.80;22.10;;;;;;2244342;61;20373;-55
2022/05/13 01:29:15;0.00;0.00;0.62;0.00;0.00;0.62;3.53;2.77;;;26.70;22.20;;;;;;2244026;61;20376;-60
2022/05/13 01:32:00;0.00;0.00;0.62;0.00;0.00;0.62;4.27;2.53;;;26.70;22.10;;;;;;2243828;61;20407;-57
2022/05/13 01:34:44;0.00;0.00;0.62;0.00;0.00;0.62;4.10;2.63;;;26.60;22.10;;;;;;2243958;61;20795;-57
2022/05/13 01:37:29;0.00;0.00;0.62;0.00;0.00;0.62;2.73;2.13;;;26.60;22.10;;;;;;2244202;61;20364;-60
2022/05/13 01:40:15;0.00;0.00;0.62;0.00;0.00;0.62;3.50;2.20;;;26.60;22.20;;;;;;2243950;61;20432;-60
2022/05/13 01:43:00;0.00;0.00;0.62;0.00;0.00;0.62;2.23;2.03;;;26.60;22.30;;;;;;2244261;61;20364;-54
2022/05/13 01:45:45;0.00;0.00;0.62;0.00;0.00;0.62;3.10;2.10;;;26.60;22.40;;;;;;2244282;61;20439;-57
2022/05/13 01:48:29;0.00;0.00;0.62;0.00;0.00;0.62;2.93;2.10;;;26.60;22.40;;;;;;2243562;61;20443;-55
2022/05/13 01:51:14;0.00;0.00;0.62;0.00;0.00;0.62;2.90;2.10;;;26.60;22.50;;;;;;2243638;61;20830;-57
2022/05/13 01:54:00;0.00;0.00;0.62;0.00;0.00;0.62;3.20;1.93;;;26.60;22.50;;;;;;2244533;61;20940;-56
2022/05/13 01:56:46;0.00;0.00;0.62;0.00;0.00;0.62;2.60;2.17;;;26.70;22.60;;;;;;2244496;61;20420;-57
2022/05/13 01:59:30;0.00;0.00;0.62;0.00;0.00;0.62;2.77;2.23;;;26.70;22.60;;;;;;2244070;61;20372;-56
2022/05/13 02:02:15;0.00;0.00;0.62;0.00;0.00;0.62;4.53;2.50;;;26.60;22.50;;;;;;2243630;61;20412;-59
2022/05/13 02:04:59;0.00;0.00;0.62;0.00;0.00;0.62;2.73;2.53;;;26.70;22.60;;;;;;2243928;61;20387;-64
2022/05/13 02:07:44;0.00;0.00;0.62;0.00;0.00;0.62;3.40;2.70;;;26.70;22.50;;;;;;2244376;61;20404;-57
2022/05/13 02:10:29;0.00;0.00;0.62;0.00;0.00;0.62;3.30;2.43;;;26.60;22.30;;;;;;2243426;61;20364;-56
2022/05/13 02:13:16;0.00;0.00;0.62;0.00;0.00;0.62;3.97;3.03;;;26.60;22.30;;;;;;2243905;61;21124;-59
2022/05/13 02:16:03;0.00;0.00;0.62;0.00;0.00;0.62;4.33;2.80;;;26.50;22.30;;;;;;2244361;61;20400;-58
2022/05/13 02:18:47;0.00;0.00;0.62;0.00;0.00;0.62;3.07;2.33;;;26.50;22.20;;;;;;2243560;61;20360;-58
2022/05/13 02:21:32;0.00;0.00;0.62;0.00;0.00;0.62;4.73;2.83;;;26.40;22.10;;;;;;2243228;61;20368;-53
2022/05/13 02:24:17;0.00;0.00;0.62;0.00;0.00;0.62;4.33;2.30;;;26.30;22.70;;;;;;2244038;61;20392;-58
2022/05/13 02:27:02;0.00;0.00;0.62;0.00;0.00;0.62;3.00;2.70;;;26.20;22.20;;;;;;2244292;61;20369;-63
2022/05/13 02:29:47;0.00;0.00;0.62;0.00;0.00;0.62;3.70;2.57;;;26.20;22.30;;;;;;2243898;61;21023;-58
2022/05/13 02:32:32;0.00;0.00;0.62;0.00;0.00;0.62;4.80;3.23;;;26.10;22.40;;;;;;2243652;61;20423;-55
2022/05/13 02:35:17;0.00;0.00;0.62;0.00;0.00;0.62;3.87;2.80;;;26.10;22.40;;;;;;2244178;61;20913;-56
2022/05/13 02:38:02;0.00;0.00;0.62;0.00;0.00;0.62;2.57;2.33;;;26.00;22.40;;;;;;2243831;61;20406;-56
2022/05/13 02:43:53;0.00;0.00;0.62;0.00;0.00;0.62;3.10;2.73;;;25.90;22.50;;;;;;2244276;61;20388;-56
2022/05/13 02:46:41;0.00;0.00;0.62;0.00;0.00;0.62;3.60;2.67;;;25.90;22.70;;;;;;2243790;61;20356;-57
2022/05/13 02:49:25;0.00;0.00;0.62;0.00;0.00;0.62;4.67;3.30;;;25.90;22.70;;;;;;2243989;61;20376;-58
2022/05/13 02:52:11;0.00;0.00;0.62;0.00;0.00;0.62;4.67;3.73;;;25.80;22.70;;;;;;2243759;61;20420;-58
2022/05/13 02:54:55;0.00;0.00;0.62;0.00;0.00;0.62;6.23;3.30;;;25.80;22.70;;;;;;2243861;61;20408;-53
2022/05/13 02:57:40;0.00;0.00;0.62;0.00;0.00;0.62;4.03;2.87;;;25.70;22.60;;;;;;2244308;61;20364;-57
2022/05/13 03:00:25;0.00;0.00;0.62;0.00;0.00;0.62;4.17;3.40;;;25.70;22.60;;;;;;2244060;61;20439;-54
2022/05/13 03:03:12;0.00;0.00;0.62;0.00;0.00;0.62;5.47;3.33;;;25.70;22.60;;;;;;2244525;61;20368;-59
2022/05/13 03:05:57;0.00;0.00;0.62;0.00;0.00;0.62;8.97;3.50;;;25.60;22.60;;;;;;2244641;61;20415;-57
2022/05/13 03:08:42;0.00;0.00;0.62;0.00;0.00;0.62;3.87;3.50;;;25.50;22.50;;;;;;2244711;61;20376;-57
2022/05/13 03:11:27;0.00;0.00;0.62;0.00;0.00;0.62;4.43;3.47;;;25.50;22.50;;;;;;2243340;61;20451;-58
2022/05/13 03:14:12;0.00;0.00;0.62;0.00;0.00;0.62;5.50;4.20;;;25.40;22.50;;;;;;2244727;61;20941;-55
2022/05/13 03:16:56;0.00;0.00;0.62;0.00;0.00;0.62;6.00;3.73;;;25.30;22.40;;;;;;2244801;61;20961;-54
2022/05/13 03:19:42;0.00;0.00;0.62;0.00;0.00;0.62;3.80;3.40;;;25.20;22.40;;;;;;2501279;53;20465;-56
2022/05/13 03:22:27;0.00;0.00;0.62;0.00;0.00;0.62;3.73;3.33;;;25.20;22.60;;;;;;2244402;61;20373;-56
2022/05/13 03:25:12;0.00;0.00;0.62;0.00;0.00;0.62;5.93;3.60;;;25.10;22.70;;;;;;2244464;61;20400;-56
2022/05/13 03:27:57;0.00;0.00;0.62;0.00;0.00;0.62;5.10;3.57;;;25.00;22.70;;;;;;2244566;61;20369;-55
2022/05/13 03:30:41;0.00;0.00;0.62;0.00;0.00;0.62;4.60;4.20;;;25.00;22.80;;;;;;2244372;61;20921;-59
2022/05/13 03:33:26;0.00;0.00;0.62;0.00;0.00;0.62;5.33;4.30;;;24.90;22.80;;;;;;2244264;61;20440;-58
2022/05/13 03:36:12;0.00;0.00;0.62;0.00;0.00;0.62;6.53;3.93;;;24.80;22.80;;;;;;2244709;61;20411;-57
2022/05/13 03:38:57;0.00;0.00;0.62;0.00;0.00;0.62;7.23;4.17;;;24.80;22.90;;;;;;2244088;61;20898;-58
2022/05/13 03:41:41;0.00;0.00;0.62;0.00;0.00;0.62;6.50;4.53;;;24.70;22.90;;;;;;2244053;61;20372;-59
2022/05/13 03:44:26;0.00;0.00;0.62;0.00;0.00;0.62;5.00;3.97;;;24.60;22.90;;;;;;2244786;61;20395;-57
2022/05/13 03:47:11;0.00;0.00;0.62;0.00;0.00;0.62;5.03;3.67;;;24.50;23.00;;;;;;2244896;61;20820;-57
2022/05/13 03:49:55;0.00;0.00;0.62;0.00;0.00;0.62;7.77;4.07;;;24.40;23.00;;;;;;2244516;61;20761;-57
2022/05/13 03:52:42;0.00;0.00;0.62;0.00;0.00;0.62;5.23;4.73;;;24.30;23.00;;;;;;2243884;61;20437;-58
2022/05/13 03:55:28;0.00;0.00;0.62;0.00;0.00;0.62;5.30;4.70;;;24.30;23.20;;;;;;2244363;61;20961;-54
2022/05/13 03:58:13;0.00;0.00;0.62;0.00;0.00;0.62;6.10;4.23;;;24.20;23.20;;;;;;2244565;61;20819;-57
2022/05/13 04:00:58;0.00;0.00;0.62;0.00;0.00;0.62;5.00;4.30;;;24.10;23.20;;;;;;2244112;61;20447;-58
2022/05/13 04:03:43;0.00;0.00;0.62;0.00;0.00;0.62;9.40;4.90;;;24.00;23.20;;;;;;2244497;61;20392;-58
2022/05/13 04:09:32;0.00;0.00;0.62;0.00;0.00;0.62;6.23;4.97;;;23.80;23.30;;;;;;2244518;61;20432;-55
2022/05/13 04:18:24;0.00;0.00;0.62;0.00;0.00;0.62;5.23;4.40;;;23.50;23.50;;;;;;2244128;61;20897;-54
2022/05/13 04:21:17;0.00;0.00;0.62;0.00;0.00;0.62;8.00;5.40;;;23.30;23.50;;;;;;2244006;61;20368;-57
2022/05/13 04:24:06;0.00;0.00;0.62;0.00;0.00;0.62;6.90;5.20;;;23.20;23.60;;;;;;2244214;61;20530;-54
2022/05/13 04:26:53;0.00;0.00;0.62;0.00;0.00;0.62;5.67;4.50;;;23.10;23.70;;;;;;2244483;61;20368;-54
2022/05/13 04:29:37;0.00;0.00;0.62;0.00;0.00;0.62;4.33;3.93;;;23.10;23.90;;;;;;2244563;61;20381;-57
2022/05/13 04:32:22;0.00;0.00;0.62;0.00;0.00;0.62;8.17;4.77;;;23.00;24.00;;;;;;2243873;61;20380;-59
2022/05/13 04:35:08;0.00;0.00;0.62;0.00;0.00;0.62;10.20;4.30;;;22.90;24.00;;;;;;2244160;61;20447;-59
2022/05/13 04:37:52;0.00;0.00;0.62;0.00;0.00;0.62;5.63;4.17;;;22.80;24.00;;;;;;2244561;61;20457;-58
2022/05/13 04:40:37;0.00;0.00;0.62;0.00;0.00;0.62;5.40;3.87;;;22.80;24.00;;;;;;2243908;61;20965;-54
2022/05/13 04:43:23;0.00;0.00;0.62;0.00;0.00;0.62;6.00;3.77;;;22.70;24.10;;;;;;2244552;61;20388;-58
2022/05/13 04:46:08;0.00;0.00;0.62;0.00;0.00;0.62;5.07;3.50;;;22.60;24.10;;;;;;2244266;61;20497;-58
2022/05/13 04:48:53;0.00;0.00;0.62;0.00;0.00;0.62;5.10;3.47;;;22.60;24.30;;;;;;2244484;61;20368;-59
2022/05/13 04:51:38;0.00;0.00;0.62;0.00;0.00;0.62;4.60;3.47;;;22.50;24.30;;;;;;2246132;61;20460;-57
2022/05/13 04:54:23;0.00;0.00;0.62;0.00;0.00;0.62;7.03;3.50;;;22.50;24.40;;;;;;2243801;61;21029;-59
2022/05/13 04:57:07;0.00;0.00;0.62;0.00;0.00;0.62;4.80;4.30;;;22.40;24.40;;;;;;2244516;61;20945;-59
2022/05/13 04:59:53;0.00;0.00;0.62;0.00;0.00;0.62;7.30;4.10;;;22.40;24.50;;;;;;2244089;61;20417;-60
2022/05/13 05:02:38;0.00;0.00;0.62;0.00;0.00;0.62;6.50;4.73;;;22.30;24.40;;;;;;2243991;61;20778;-57
2022/05/13 05:05:23;0.00;0.00;0.62;0.00;0.00;0.62;6.13;4.50;;;22.30;24.60;;;;;;2244335;61;20810;-58
2022/05/13 05:08:08;0.00;0.00;0.62;0.00;0.00;0.62;7.90;4.80;;;22.30;24.70;;;;;;2244121;61;20372;-57
2022/05/13 05:10:53;0.00;0.00;0.62;0.00;0.00;0.62;9.77;4.30;;;22.20;24.70;;;;;;2244037;61;20512;-57
2022/05/13 05:13:41;0.00;0.00;0.62;0.00;0.00;0.62;7.53;4.60;;;22.20;24.80;;;;;;2244474;61;20396;-59
2022/05/13 05:16:27;0.00;0.00;0.62;0.00;0.00;0.62;5.10;4.50;;;22.20;24.90;;;;;;2244131;61;20360;-60
2022/05/13 05:19:14;0.00;0.00;0.62;0.00;0.00;0.62;8.87;4.60;;;22.10;24.90;;;;;;2244390;61;20499;-59
2022/05/13 05:21:59;0.00;0.00;0.62;0.00;0.00;0.62;5.40;4.37;;;22.10;25.00;;;;;;2243534;61;20444;-59
2022/05/13 05:24:45;0.00;0.00;0.62;0.00;0.00;0.62;8.10;4.33;;;22.10;25.10;;;;;;2243563;61;20404;-56
2022/05/13 05:27:29;0.00;0.00;0.62;0.00;0.00;0.62;5.00;4.60;;;22.10;25.10;;;;;;2243949;61;20941;-59
2022/05/13 05:30:15;0.00;0.00;0.62;0.00;0.00;0.62;5.17;4.27;;;22.10;25.10;;;;;;2244073;61;20392;-60
2022/05/13 05:33:01;0.00;0.00;0.62;0.00;0.00;0.62;5.90;4.27;;;22.10;25.20;;;;;;2244355;61;20501;-53
2022/05/13 05:35:46;0.00;0.00;0.62;0.00;0.00;0.62;5.70;3.57;;;22.00;25.20;;;;;;2244330;61;20994;-58
2022/05/13 05:38:31;0.00;0.00;0.62;0.00;0.00;0.62;5.10;3.40;;;22.10;25.20;;;;;;2244257;61;20901;-58
2022/05/13 05:41:15;0.00;0.00;0.62;0.00;0.00;0.62;3.80;3.10;;;22.00;25.10;;;;;;2243570;61;20885;-59
2022/05/13 05:44:00;0.00;0.00;0.62;0.00;0.00;0.62;6.73;3.37;;;22.10;25.00;;;;;;2244061;61;20409;-56
2022/05/13 05:46:44;0.00;0.00;0.62;0.00;0.00;0.62;6.53;3.67;;;22.10;24.90;;;;;;2244253;61;20361;-60
2022/05/13 05:49:30;0.00;0.00;0.62;0.00;0.00;0.62;4.33;3.13;;;22.10;24.80;;;;;;2243836;61;20360;-54
2022/05/13 05:52:15;0.00;0.00;0.62;0.00;0.00;0.62;3.43;2.77;;;22.10;24.70;;;;;;2243158;61;20771;-56
2022/05/13 05:58:07;0.00;0.00;0.62;0.00;0.00;0.62;4.53;3.30;;;22.10;24.60;;;;;;2244203;61;20512;-54
2022/05/13 06:00:51;0.00;0.00;0.62;0.00;0.00;0.62;4.00;2.87;;;22.20;24.60;;;;;;2244065;61;20385;-56
2022/05/13 06:03:37;0.00;0.00;0.62;0.00;0.00;0.62;5.33;3.20;;;22.20;24.60;;;;;;2243993;61;20803;-56
2022/05/13 06:06:24;0.00;0.00;0.62;0.00;0.00;0.62;7.40;2.53;;;22.20;24.50;;;;;;2244075;61;20817;-59
2022/05/13 06:09:09;0.00;0.00;0.62;0.00;0.00;0.62;4.80;2.93;;;22.20;24.50;;;;;;2244022;61;20408;-58
2022/05/13 06:11:53;0.00;0.00;0.62;0.00;0.00;0.62;4.53;3.20;;;22.20;24.40;;;;;;2243686;61;20452;-59
2022/05/13 06:14:39;0.00;0.00;0.62;0.00;0.00;0.62;4.20;2.07;;;22.20;24.40;;;;;;2244071;61;20444;-59
2022/05/13 06:17:23;0.00;0.00;0.62;0.00;0.00;0.62;3.03;2.30;;;22.20;24.40;;;;;;2244190;61;20397;-57
2022/05/13 06:20:09;0.00;0.00;0.62;0.00;0.00;0.62;5.70;3.10;;;22.20;24.40;;;;;;2244239;61;20441;-56
2022/05/13 06:22:56;0.00;0.00;0.62;0.00;0.00;0.62;5.57;3.10;;;22.20;24.40;;;;;;2244075;61;20376;-57
2022/05/13 06:25:41;0.00;0.00;0.62;0.00;0.00;0.62;5.70;2.63;;;22.20;24.40;;;;;;2244021;61;20396;-58
2022/05/13 06:28:26;0.00;0.00;0.62;0.00;0.00;0.62;3.50;2.83;;;22.30;24.40;;;;;;2244159;61;20838;-55
2022/05/13 06:31:11;0.00;0.00;0.62;0.00;0.00;0.62;7.50;2.60;;;22.20;24.40;;;;;;2243862;61;20387;-58
2022/05/13 06:33:56;0.00;0.00;0.62;0.00;0.00;0.62;5.53;3.43;;;22.20;24.30;;;;;;2244455;61;20837;-54
2022/05/13 06:36:41;0.00;0.00;0.62;0.00;0.00;0.62;5.60;3.00;;;22.20;24.40;;;;;;2244642;61;20456;-56
2022/05/13 06:39:28;0.00;0.00;0.62;0.00;0.00;0.62;4.70;3.30;;;22.20;24.40;;;;;;2244851;61;20901;-54
2022/05/13 06:42:12;0.00;0.00;0.62;0.00;0.00;0.62;3.30;2.50;;;22.20;24.50;;;;;;2244299;61;20376;-54
2022/05/13 06:45:00;0.00;0.00;0.62;0.00;0.00;0.62;4.97;2.90;;;22.20;24.50;;;;;;2249786;61;20396;-57
2022/05/13 06:47:45;0.00;0.00;0.62;0.00;0.00;0.62;4.13;2.50;;;22.20;24.50;;;;;;2244764;61;20773;-56
2022/05/13 06:50:29;0.00;0.00;0.62;0.00;0.00;0.62;3.60;2.90;;;22.20;24.50;;;;;;2244185;61;20846;-59
2022/05/13 06:53:16;0.00;0.00;0.62;0.00;0.00;0.62;5.00;3.00;;;22.30;24.60;;;;;;2244686;61;20948;-57
2022/05/13 06:56:01;0.00;0.00;0.62;0.00;0.00;0.62;3.93;2.30;;;22.20;24.60;;;;;;2245127;61;20492;-57
2022/05/13 06:58:46;0.00;0.00;0.62;0.00;0.00;0.62;4.70;2.73;;;22.20;24.70;;;;;;2244632;61;20457;-56
2022/05/13 07:01:31;0.00;0.00;0.62;0.00;0.00;0.62;5.50;3.20;;;22.20;24.70;;;;;;2244453;61;20376;-58
2022/05/13 07:04:16;0.00;0.00;0.62;0.00;0.00;0.62;3.20;2.37;;;22.30;24.70;;;;;;2244891;61;20384;-62
2022/05/13 07:07:01;0.00;0.00;0.62;0.00;0.00;0.62;4.33;2.70;;;22.30;24.70;;;;;;2244781;61;20897;-57
2022/05/13 07:09:45;0.00;0.00;0.62;0.00;0.00;0.62;6.63;2.73;;;22.30;24.70;;;;;;2244687;61;20847;-57
2022/05/13 07:12:32;0.00;0.00;0.62;0.00;0.00;0.62;4.70;2.30;;;22.30;24.70;;;;;;2244302;61;20368;-59
2022/05/13 07:15:20;0.00;0.00;0.62;0.00;0.00;0.62;4.43;2.50;;;22.30;24.70;;;;;;2244787;61;20392;-56
2022/05/13 07:18:05;0.00;0.00;0.62;0.00;0.00;0.62;4.63;2.37;;;22.30;24.60;;;;;;2244615;61;20419;-59
2022/05/13 07:20:50;0.00;0.00;0.62;0.00;0.00;0.62;8.20;4.87;;;22.30;24.60;;;;;;2243708;61;20372;-56
2022/05/13 07:23:35;0.00;0.00;0.62;0.00;0.00;0.62;7.60;4.20;;;22.30;24.70;;;;;;2244723;61;20877;-58
2022/05/13 07:26:19;0.00;0.00;0.62;0.00;0.00;0.62;5.67;3.40;;;22.30;24.80;;;;;;2244071;61;20419;-57
2022/05/13 07:29:06;0.00;0.00;0.62;0.00;0.00;0.62;6.20;3.10;;;22.30;24.90;;;;;;2244635;61;20408;-54
2022/05/13 07:31:50;0.00;0.00;0.62;0.00;0.00;0.62;4.67;2.70;;;22.30;25.00;;;;;;2243906;61;20401;-58
2022/05/13 07:34:35;0.00;0.00;0.62;0.00;0.00;0.62;6.10;2.97;;;22.30;25.10;;;;;;2244177;61;20882;-63
2022/05/13 07:37:20;0.00;0.00;0.62;0.00;0.00;0.62;5.37;2.80;;;22.30;25.10;;;;;;2242599;61;20893;-58
2022/05/13 07:43:09;0.00;0.00;0.62;0.00;0.00;0.62;5.73;2.90;;;22.30;25.30;;;;;;2244662;61;20360;-65
2022/05/13 07:45:55;0.00;0.00;0.62;0.00;0.00;0.62;5.47;2.73;;;22.30;25.40;;;;;;2244309;61;20416;-65
2022/05/13 07:48:41;0.00;0.00;0.62;0.00;0.00;0.62;5.27;2.53;;;22.30;26.00;;;;;;2244581;61;20932;-63
2022/05/13 07:51:26;0.00;0.00;0.62;0.00;0.00;0.62;3.20;1.67;;;22.40;25.50;;;;;;2244024;61;20397;-58
2022/05/13 07:54:11;0.00;0.00;0.62;0.00;0.00;0.62;3.70;1.90;;;22.40;25.50;;;;;;2244636;61;20388;-65
2022/05/13 07:56:55;0.00;0.00;0.62;0.00;0.00;0.62;4.73;2.40;;;22.40;25.60;;;;;;2244545;61;20773;-61
2022/05/13 08:02:45;0.00;0.00;0.62;0.00;0.00;0.62;5.30;2.27;;;22.40;25.60;;;;;;2244540;61;20392;-57
2022/05/13 08:05:36;0.00;0.00;0.62;0.00;0.00;0.62;5.60;2.13;;;22.50;25.70;;;;;;2244542;61;20945;-56
2022/05/13 08:08:26;0.00;0.00;0.62;0.00;0.00;0.62;3.43;1.80;;;22.50;25.70;;;;;;2244542;61;20364;-58
2022/05/13 08:11:14;0.00;0.00;0.62;0.00;0.00;0.62;3.10;1.90;;;22.50;25.70;;;;;;2244058;61;20922;-54
2022/05/13 08:13:59;0.00;0.00;0.62;0.00;0.00;0.62;4.07;2.50;;;22.60;25.80;;;;;;2246680;61;20400;-57
2022/05/13 08:16:43;0.00;0.00;0.62;0.00;0.00;0.62;6.40;2.37;;;22.60;25.70;;;;;;2244257;61;20446;-62
2022/05/13 08:19:29;0.00;0.00;0.62;0.00;0.00;0.62;4.93;2.20;;;22.70;25.80;;;;;;2244541;61;20373;-52
2022/05/13 08:22:13;0.00;0.00;0.62;0.00;0.00;0.62;3.27;2.00;;;22.70;25.80;;;;;;2243963;61;20909;-60
2022/05/13 08:24:58;0.00;0.00;0.62;0.00;0.00;0.62;3.10;1.60;;;22.70;25.80;;;;;;2244504;61;20452;-53
2022/05/13 08:27:43;0.00;0.00;0.62;0.00;0.00;0.62;4.90;2.00;;;22.80;25.90;;;;;;2244525;61;20373;-60
2022/05/13 08:30:27;0.00;0.00;0.62;0.00;0.00;0.62;2.80;1.63;;;22.80;25.90;;;;;;2244100;61;20925;-56
2022/05/13 08:33:13;0.00;0.00;0.62;0.00;0.00;0.62;6.53;1.90;;;22.90;25.90;;;;;;2244375;61;20408;-54
2022/05/13 08:36:03;0.00;0.00;0.62;0.00;0.00;0.62;3.60;1.73;;;22.90;25.90;;;;;;2244700;61;20415;-53
2022/05/13 08:38:49;0.00;0.00;0.62;0.00;0.00;0.62;3.73;2.03;;;22.90;25.80;;;;;;2244405;61;20373;-53
2022/05/13 08:42:03;0.00;0.00;0.62;0.00;0.00;0.62;5.77;1.60;;;22.90;25.80;;;;;;2244076;61;20427;-55
2022/05/13 08:44:49;0.00;0.00;0.62;0.00;0.00;0.62;3.23;1.73;;;23.00;25.90;;;;;;2244453;61;20431;-57
2022/05/13 08:47:49;0.00;0.00;0.62;0.00;0.00;0.62;3.77;2.00;;;23.00;25.80;;;;;;2244396;61;20372;-55
2022/05/13 08:50:39;0.00;0.00;0.62;0.00;0.00;0.62;2.80;1.60;;;23.00;25.80;;;;;;2243963;61;20768;-54
2022/05/13 08:53:34;0.00;0.00;0.62;0.00;0.00;0.62;5.27;1.97;;;23.10;25.90;;;;;;2244247;61;20490;-59
2022/05/13 08:56:25;0.00;0.00;0.62;0.00;0.00;0.62;4.20;2.67;;;23.10;25.80;;;;;;2244363;61;20772;-59
2022/05/13 08:59:17;0.00;0.00;0.62;0.00;0.00;0.62;3.80;2.00;;;23.10;25.80;;;;;;2244295;61;20360;-57
2022/05/13 09:02:10;0.00;0.00;0.62;0.00;0.00;0.62;5.43;2.20;;;23.10;25.80;;;;;;2243676;61;20523;-62
2022/05/13 09:05:02;0.00;0.00;0.62;0.00;0.00;0.62;4.20;1.90;;;23.20;25.80;;;;;;2244165;61;20388;-53
2022/05/13 09:07:47;0.00;0.00;0.62;0.00;0.00;0.62;4.13;1.57;;;23.20;25.80;;;;;;2249383;61;20376;-55
2022/05/13 09:10:37;0.00;0.00;0.62;0.00;0.00;0.62;3.03;2.00;;;23.20;25.80;;;;;;2243509;61;20364;-56
2022/05/13 09:13:28;0.00;0.00;0.62;0.00;0.00;0.62;3.97;2.00;;;23.30;25.90;;;;;;2244396;61;20380;-52
2022/05/13 09:16:16;0.00;0.00;0.62;0.00;0.00;0.62;11.07;2.27;;;23.30;25.90;;;;;;2244261;61;20413;-55
2022/05/13 09:19:03;0.00;0.00;0.62;0.00;0.00;0.62;4.57;2.73;;;23.30;25.80;;;;;;2244043;61;20372;-54
2022/05/13 09:21:48;0.00;0.00;0.62;0.00;0.00;0.62;2.63;1.63;;;23.30;26.40;;;;;;2243924;61;20420;-54
2022/05/13 09:24:33;0.00;0.00;0.62;0.00;0.00;0.62;3.00;2.10;;;23.40;25.90;;;;;;2244159;61;20840;-54
2022/05/13 09:27:18;0.00;0.00;0.62;0.00;0.00;0.62;5.03;2.00;;;23.40;25.80;;;;;;2243921;61;20404;-56
2022/05/13 09:30:04;0.00;0.00;0.62;0.00;0.00;0.62;3.67;1.80;;;23.40;25.80;;;;;;2244007;61;20408;-63
2022/05/13 09:32:49;0.00;0.00;0.62;0.00;0.00;0.62;2.33;1.60;;;23.50;25.80;;;;;;2243736;61;20408;-59
2022/05/13 09:35:39;0.00;0.00;0.62;0.00;0.00;0.62;3.27;2.00;;;23.50;25.80;;;;;;2243961;61;20471;-57
2022/05/13 09:38:27;0.00;0.00;0.62;0.00;0.00;0.62;4.03;2.10;;;23.50;25.80;;;;;;2244324;61;20900;-59
2022/05/13 09:41:24;0.00;0.00;0.62;0.00;0.00;0.62;4.23;2.50;;;23.60;25.90;;;;;;2243880;61;20465;-54
2022/05/13 09:44:13;0.00;0.00;0.62;0.00;0.00;0.62;4.77;2.20;;;23.60;25.80;;;;;;2244395;61;20585;-60
2022/05/13 09:47:10;0.00;0.00;0.62;0.00;0.00;0.62;5.50;2.93;;;23.60;25.70;;;;;;2244188;61;20361;-58
2022/05/13 09:49:55;0.00;0.00;0.62;0.00;0.00;0.62;4.83;2.13;;;23.60;25.70;;;;;;2244274;61;20424;-63
2022/05/13 09:52:40;0.00;0.00;0.62;0.00;0.00;0.62;3.50;2.10;;;23.70;25.70;;;;;;2243852;61;20416;-58
2022/05/13 09:55:27;0.00;0.00;0.62;0.00;0.00;0.62;3.93;2.60;;;23.70;25.70;;;;;;2243853;61;20380;-59
2022/05/13 09:58:19;0.00;0.00;0.62;0.00;0.00;0.62;4.37;1.93;;;23.70;25.70;;;;;;2243947;61;20816;-57
2022/05/13 10:01:09;0.00;0.00;0.62;0.00;0.00;0.62;4.20;2.00;;;23.70;25.70;;;;;;2243954;61;20897;-59
2022/05/13 10:04:08;0.00;0.00;0.62;0.00;0.00;0.62;5.37;2.20;;;23.80;25.70;;;;;;2244041;61;20408;-62
2022/05/13 10:07:05;0.00;0.00;0.62;0.00;0.00;0.62;5.00;1.80;;;23.80;25.70;;;;;;2246326;61;20501;-62
2022/05/13 10:16:16;0.00;0.00;0.62;0.00;0.00;0.62;4.47;2.10;;;23.90;25.50;;;;;;2244190;61;20533;-56
2022/05/13 10:19:08;0.00;0.00;0.62;0.00;0.00;0.62;3.80;1.90;;;23.90;25.40;;;;;;2244072;61;20765;-59
2022/05/13 10:22:03;0.00;0.00;0.62;0.00;0.00;0.62;2.70;1.70;;;23.90;25.40;;;;;;2243682;61;20772;-59
2022/05/13 10:24:55;0.00;0.00;0.62;0.00;0.00;0.62;4.20;1.57;;;24.00;25.40;;;;;;2243236;61;20468;-67
2022/05/13 10:27:46;0.00;0.00;0.62;0.00;0.00;0.62;4.13;1.70;;;24.00;25.40;;;;;;2244101;61;20364;-61
2022/05/13 10:30:39;0.00;0.00;0.62;0.00;0.00;0.62;2.87;1.90;;;24.10;25.40;;;;;;2243823;61;21210;-66
2022/05/13 10:33:33;0.00;0.00;0.62;0.00;0.00;0.62;7.90;2.50;;;24.10;25.40;;;;;;2243984;61;20412;-53
2022/05/13 10:36:23;0.00;0.00;0.62;0.00;0.00;0.62;2.33;1.97;;;24.10;25.40;;;;;;2244316;61;20384;-60
2022/05/13 10:39:16;0.00;0.00;0.62;0.00;0.00;0.62;7.00;3.17;;;24.20;25.50;;;;;;2244255;61;20388;-63
2022/05/13 10:42:06;0.00;0.00;0.62;0.00;0.00;0.62;6.50;2.87;;;24.20;25.50;;;;;;2243815;61;20364;-60
2022/05/13 10:44:58;0.00;0.00;0.62;0.00;0.00;0.62;6.23;4.00;;;24.30;25.50;;;;;;2244297;61;20428;-61
2022/05/13 10:47:49;0.00;0.00;0.62;0.00;0.00;0.62;8.60;4.03;;;24.30;25.50;;;;;;2244399;61;20814;-58
2022/05/13 10:50:41;0.00;0.00;0.62;0.00;0.00;0.62;6.20;4.20;;;24.40;25.50;;;;;;2243787;61;20364;-61
2022/05/13 10:53:40;0.00;0.00;0.62;0.00;0.00;0.62;6.33;4.50;;;24.50;25.60;;;;;;2244150;61;20423;-61
2022/05/13 10:56:37;0.00;0.00;0.62;0.00;0.00;0.62;8.10;5.00;;;24.50;25.50;;;;;;2244054;61;20449;-59
2022/05/13 10:59:36;0.00;0.00;0.62;0.00;0.00;0.62;5.27;4.27;;;24.50;25.50;;;;;;2244041;61;20416;-65
2022/05/13 11:03:14;0.00;0.00;0.62;0.00;0.00;0.62;8.13;4.37;;;24.60;25.50;;;;;;2243623;61;20396;-63
2022/05/13 11:06:24;0.00;0.00;0.62;0.00;0.00;0.62;11.00;3.80;;;24.60;25.50;;;;;;2243451;61;20388;-61
2022/05/13 11:09:20;0.00;0.00;0.62;0.00;0.00;0.62;5.27;4.20;;;24.70;25.60;;;;;;2240068;61;20417;-63
2022/05/13 11:12:17;0.00;0.00;0.62;0.00;0.00;0.62;8.23;4.20;;;24.70;25.60;;;;;;2241744;61;20382;-58
2022/05/13 11:15:25;0.00;0.00;0.62;0.00;0.00;0.62;9.13;4.90;;;24.80;25.60;;;;;;2241895;61;20538;-59
2022/05/13 11:18:25;0.00;0.00;0.62;0.00;0.00;0.62;4.00;3.60;;;24.90;25.60;;;;;;2246137;61;20377;-60
2022/05/13 11:21:24;0.00;0.00;0.62;0.00;0.00;0.62;5.10;4.17;;;24.90;25.60;;;;;;2243817;61;20801;-59
2022/05/13 11:27:37;0.00;0.00;0.62;0.00;0.00;0.62;5.47;4.20;;;25.00;25.50;;;;;;2244755;61;20755;-59
2022/05/13 11:30:30;0.00;0.00;0.62;0.00;0.00;0.62;4.63;4.00;;;25.10;25.50;;;;;;2244351;61;20376;-62